CST,Max TemperatureF,Mean TemperatureF,Min TemperatureF,Max Dew PointF,MeanDew PointF,Min DewpointF,Max Humidity, Mean Humidity, Min Humidity, Max Sea Level PressureIn, Mean Sea Level PressureIn, Min Sea Level PressureIn, Max VisibilityMiles, Mean VisibilityMiles, Min VisibilityMiles, Max Wind SpeedMPH, Mean Wind SpeedMPH, Max Gust SpeedMPH,PrecipitationIn, CloudCover, Events, WindDirDegrees
2013-2-1,54,38,23,27,19,13,72,52,30,30.39,30.25,30.10,10,10,10,15,10,18,0.00,0,,112
2013-2-2,64,48,33,32,28,25,75,50,24,30.30,30.23,30.08,10,10,10,15,10,17,0.00,0,,14
2013-2-3,69,52,36,29,24,17,67,37,14,30.29,30.12,29.85,10,10,10,21,9,29,0.00,0,,216
2013-2-4,70,58,45,46,34,25,64,45,20,29.91,29.82,29.76,10,10,10,18,11,26,0.00,0,,37
2013-2-5,68,52,35,52,42,26,97,71,30,30.00,29.95,29.87,10,8,0,16,8,,0.00,3,Fog,86
2013-2-6,75,62,48,56,52,48,100,82,41,29.98,29.88,29.73,10,6,0,16,7,24,0.01,4,Fog,131
2013-2-7,64,54,42,55,45,30,93,70,46,30.17,29.88,29.69,10,10,10,32,16,43,0.00,3,,355
2013-2-8,57,44,32,30,24,14,75,47,18,30.27,30.17,30.06,10,10,10,13,9,,0.00,0,,64
2013-2-9,55,46,37,54,44,26,97,85,62,30.05,29.80,29.62,10,7,2,25,15,32,0.04,7,Rain,136
2013-2-10,63,50,36,46,27,19,75,46,18,30.00,29.81,29.67,10,10,10,17,11,23,0.01,1,,278
2013-2-11,57,44,32,28,24,22,73,48,26,30.19,30.08,30.01,10,10,10,17,10,17,0.00,1,,78
2013-2-12,42,38,33,37,35,29,93,88,60,30.09,29.98,29.91,10,8,2,22,13,26,0.80,7,Rain-Thunderstorm,18
2013-2-13,57,42,28,39,32,26,92,73,39,30.11,30.04,29.96,10,10,8,9,6,,0.00,0,,268
2013-2-14,64,48,32,39,32,25,85,61,22,30.17,30.02,29.96,10,10,10,22,8,28,0.00,1,,49
2013-2-15,45,39,33,35,25,21,76,58,40,30.42,30.34,30.20,10,10,10,26,15,37,0.00,5,Rain,9
2013-2-16,55,42,28,32,29,25,100,75,34,30.40,30.28,30.00,10,7,0,14,7,17,0.00,2,Fog,277
2013-2-17,73,52,30,32,26,19,82,45,13,30.04,29.86,29.69,10,10,10,26,11,34,0.00,0,,160
2013-2-18,60,50,37,45,30,23,80,47,25,30.12,29.86,29.60,10,10,10,28,18,34,0.00,0,,334
2013-2-19,57,44,32,27,24,19,70,47,22,30.29,30.17,30.09,10,10,10,18,10,24,0.00,1,Rain,91
2013-2-20,44,40,36,39,37,33,93,90,71,30.10,29.97,29.73,10,10,10,31,18,38,0.35,8,Rain,116
2013-2-21,50,39,28,40,33,19,96,82,63,30.01,29.72,29.64,10,9,4,25,14,34,0.11,6,Rain-Thunderstorm,350
2013-2-22,42,33,24,27,21,16,82,66,51,30.17,30.08,30.01,10,10,10,16,10,,0.00,0,,359
2013-2-23,50,38,27,32,27,22,85,70,46,30.09,29.98,29.83,10,10,10,14,8,,0.00,2,,120
2013-2-24,69,50,30,42,35,27,88,64,36,29.82,29.71,29.56,10,9,6,22,12,28,0.00,0,Thunderstorm,120
2013-2-25,43,39,35,40,33,30,93,87,79,29.76,29.59,29.50,10,7,2,34,27,45,0.02,8,Rain-Snow,342
2013-2-26,50,40,30,35,30,26,82,71,52,29.90,29.84,29.77,10,10,8,22,15,34,0.00,1,,319
2013-2-27,50,41,32,32,27,24,79,63,36,30.26,30.13,29.91,10,10,10,30,14,37,0.00,1,,337
2013-2-28,55,42,28,30,26,21,85,61,28,30.30,30.25,30.20,10,10,7,17,9,26,0.00,0,,330